Time;durP1;ratioP1;P1;durP2;ratioP2;P2;SDS_P1;SDS_P2;PMS_P1;PMS_P2;Temp;Humidity;BMP_temperature;BMP_pressure;BME280_temperature;BME280_humidity;BME280_pressure;Samples;Min_cycle;Max_cycle;Signal;HPM_P1;HPM_P2
2023/08/18 00:02:09;;;;;;;2.80;2.60;;;;;;;;;;5024783;28;20196;-70
2023/08/18 00:04:36;;;;;;;4.38;2.83;;;;;;;;;;5027219;28;20224;-68
2023/08/18 00:07:03;;;;;;;3.65;2.95;;;;;;;;;;5027546;28;20530;-68
2023/08/18 00:09:30;;;;;;;3.17;2.90;;;;;;;;;;5026861;28;20200;-67
2023/08/18 00:11:57;;;;;;;4.65;3.00;;;;;;;;;;5022291;28;20206;-68
2023/08/18 00:14:26;;;;;;;4.45;3.20;;;;;;;;;;5025890;28;20202;-67
2023/08/18 00:16:53;;;;;;;3.13;2.75;;;;;;;;;;5023411;28;20203;-68
2023/08/18 00:19:21;;;;;;;3.67;2.60;;;;;;;;;;5023470;28;20201;-68
2023/08/18 00:21:48;;;;;;;6.38;3.05;;;;;;;;;;5026038;28;20208;-68
2023/08/18 00:24:16;;;;;;;7.18;2.97;;;;;;;;;;5024092;28;20208;-68
2023/08/18 00:26:45;;;;;;;3.10;2.90;;;;;;;;;;5019541;28;20219;-67
2023/08/18 00:29:12;;;;;;;3.00;2.80;;;;;;;;;;5022973;28;20424;-68
2023/08/18 00:31:40;;;;;;;3.80;2.70;;;;;;;;;;5018152;28;20215;-68
2023/08/18 00:34:07;;;;;;;4.38;2.90;;;;;;;;;;5022517;28;20200;-68
2023/08/18 00:36:35;;;;;;;5.65;2.88;;;;;;;;;;5019616;28;20203;-68
2023/08/18 00:39:02;;;;;;;3.42;3.10;;;;;;;;;;5018126;28;20197;-68
2023/08/18 00:41:29;;;;;;;4.25;3.30;;;;;;;;;;5025724;28;20580;-68
2023/08/18 00:43:56;;;;;;;3.10;2.90;;;;;;;;;;5025256;28;20247;-67
2023/08/18 00:46:24;;;;;;;3.60;3.00;;;;;;;;;;5019778;28;20201;-68
2023/08/18 00:48:52;;;;;;;3.28;2.97;;;;;;;;;;5023418;28;20206;-68
2023/08/18 00:51:20;;;;;;;3.38;3.13;;;;;;;;;;5025388;28;20200;-69
2023/08/18 00:53:47;;;;;;;3.40;2.88;;;;;;;;;;5023465;28;20201;-68
2023/08/18 00:56:15;;;;;;;2.80;2.58;;;;;;;;;;5026549;28;20237;-68
2023/08/18 00:58:42;;;;;;;2.78;2.60;;;;;;;;;;5027553;28;20207;-68
2023/08/18 01:01:09;;;;;;;3.08;2.78;;;;;;;;;;5022945;28;20238;-63
2023/08/18 01:03:36;;;;;;;4.60;3.33;;;;;;;;;;5020307;28;20200;-63
2023/08/18 01:06:05;;;;;;;3.05;2.80;;;;;;;;;;5023315;28;20226;-63
2023/08/18 01:08:32;;;;;;;3.92;2.85;;;;;;;;;;5022471;28;20224;-64
2023/08/18 01:11:04;;;;;;;3.22;2.85;;;;;;;;;;5027006;28;20258;-63
2023/08/18 01:13:36;;;;;;;3.25;2.95;;;;;;;;;;5024443;28;20204;-63
2023/08/18 01:16:06;;;;;;;4.40;2.92;;;;;;;;;;5021576;28;20729;-64
2023/08/18 01:18:34;;;;;;;4.47;3.28;;;;;;;;;;5032455;28;20207;-63
2023/08/18 01:21:03;;;;;;;5.47;3.10;;;;;;;;;;5030151;28;20208;-64
2023/08/18 01:23:48;;;;;;;2.97;2.78;;;;;;;;;;5022955;28;20268;-64
2023/08/18 01:26:17;;;;;;;3.40;3.10;;;;;;;;;;5026689;28;20200;-63
2023/08/18 01:28:45;;;;;;;3.20;2.90;;;;;;;;;;5019780;28;20274;-63
2023/08/18 01:31:14;;;;;;;3.20;2.92;;;;;;;;;;5024987;28;20205;-64
2023/08/18 01:33:45;;;;;;;3.15;2.90;;;;;;;;;;5027578;28;20204;-63
2023/08/18 01:36:13;;;;;;;3.50;3.20;;;;;;;;;;5024932;28;20207;-64
2023/08/18 01:38:42;;;;;;;3.22;2.92;;;;;;;;;;5019960;28;20261;-64
2023/08/18 01:41:11;;;;;;;3.05;2.85;;;;;;;;;;5027481;28;20205;-63
2023/08/18 01:43:39;;;;;;;3.30;3.00;;;;;;;;;;5027293;28;20394;-64
2023/08/18 01:46:06;;;;;;;3.50;2.92;;;;;;;;;;5022118;28;20204;-63
2023/08/18 01:48:34;;;;;;;4.55;3.10;;;;;;;;;;5022615;28;20228;-64
2023/08/18 01:51:01;;;;;;;3.40;3.10;;;;;;;;;;5027211;28;20207;-63
2023/08/18 01:53:28;;;;;;;3.50;3.20;;;;;;;;;;5020878;28;20204;-64
2023/08/18 01:55:55;;;;;;;4.00;2.88;;;;;;;;;;5023275;28;20211;-63
2023/08/18 01:58:22;;;;;;;2.95;2.75;;;;;;;;;;5019735;28;20202;-63
2023/08/18 02:00:56;;;;;;;3.63;3.30;;;;;;;;;;5020180;28;20236;-63
2023/08/18 02:03:23;;;;;;;3.20;3.00;;;;;;;;;;5024952;28;20199;-63
2023/08/18 02:05:53;;;;;;;3.42;3.13;;;;;;;;;;5021191;28;20211;-63
2023/08/18 02:08:20;;;;;;;3.50;3.08;;;;;;;;;;5025038;28;20229;-63
2023/08/18 02:10:47;;;;;;;7.15;3.33;;;;;;;;;;5022732;28;20207;-63
2023/08/18 02:13:15;;;;;;;3.88;3.28;;;;;;;;;;5025013;28;20199;-63
2023/08/18 02:15:42;;;;;;;4.60;3.35;;;;;;;;;;5021286;28;20211;-63
2023/08/18 02:18:10;;;;;;;5.05;3.50;;;;;;;;;;5024647;28;20197;-63
2023/08/18 02:20:38;;;;;;;3.97;3.67;;;;;;;;;;5017796;28;20205;-63
2023/08/18 02:23:05;;;;;;;6.78;3.85;;;;;;;;;;5018918;28;20209;-63
2023/08/18 02:25:32;;;;;;;3.67;3.38;;;;;;;;;;5019968;28;20208;-64
2023/08/18 02:28:00;;;;;;;4.20;3.50;;;;;;;;;;5025143;28;20263;-63
2023/08/18 02:30:27;;;;;;;4.18;3.53;;;;;;;;;;5018940;28;20212;-63
2023/08/18 02:32:54;;;;;;;4.15;3.47;;;;;;;;;;5027491;28;20212;-63
2023/08/18 02:35:23;;;;;;;5.10;3.47;;;;;;;;;;5030491;28;20204;-64
2023/08/18 02:37:50;;;;;;;4.10;3.80;;;;;;;;;;5022908;28;20418;-63
2023/08/18 02:40:17;;;;;;;4.38;3.97;;;;;;;;;;5015396;28;20211;-63
2023/08/18 02:42:44;;;;;;;3.90;3.55;;;;;;;;;;5024295;28;20207;-64
2023/08/18 02:45:12;;;;;;;4.30;3.90;;;;;;;;;;5018919;28;20209;-63
2023/08/18 02:47:40;;;;;;;4.22;3.70;;;;;;;;;;5022716;28;20216;-63
2023/08/18 02:50:07;;;;;;;3.97;3.60;;;;;;;;;;5024382;28;20295;-63
2023/08/18 02:52:36;;;;;;;5.90;3.80;;;;;;;;;;5020816;28;20283;-64
2023/08/18 02:55:03;;;;;;;5.00;3.53;;;;;;;;;;5021391;28;20204;-63
2023/08/18 02:57:30;;;;;;;5.90;3.95;;;;;;;;;;5018607;28;20201;-63
2023/08/18 02:59:58;;;;;;;5.43;4.10;;;;;;;;;;5021285;28;20228;-64
2023/08/18 03:02:25;;;;;;;4.10;3.72;;;;;;;;;;5027377;28;20477;-63
2023/08/18 03:04:52;;;;;;;4.50;3.78;;;;;;;;;;5020631;28;20204;-63
2023/08/18 03:07:19;;;;;;;3.85;3.53;;;;;;;;;;5029946;28;20208;-62
2023/08/18 03:09:48;;;;;;;4.03;3.72;;;;;;;;;;5027670;28;20215;-63
2023/08/18 03:12:16;;;;;;;6.20;4.20;;;;;;;;;;5025104;28;20220;-63
2023/08/18 03:14:43;;;;;;;5.25;3.70;;;;;;;;;;5027300;28;20215;-64
2023/08/18 03:17:10;;;;;;;4.63;4.20;;;;;;;;;;5027733;28;20201;-62
2023/08/18 03:19:37;;;;;;;4.38;4.05;;;;;;;;;;5026514;28;20204;-63
2023/08/18 03:22:04;;;;;;;4.88;4.10;;;;;;;;;;5023914;28;20201;-69
2023/08/18 03:24:31;;;;;;;4.70;4.30;;;;;;;;;;5021275;28;20204;-68
2023/08/18 03:27:00;;;;;;;5.03;4.53;;;;;;;;;;5031515;28;20207;-69
2023/08/18 03:29:27;;;;;;;4.90;4.40;;;;;;;;;;5021275;28;20227;-68
2023/08/18 03:31:54;;;;;;;4.25;3.90;;;;;;;;;;5018511;28;20209;-68
2023/08/18 03:34:21;;;;;;;4.68;4.28;;;;;;;;;;5025812;28;20200;-68
2023/08/18 03:36:49;;;;;;;4.78;4.28;;;;;;;;;;5027063;28;20301;-68
2023/08/18 03:39:16;;;;;;;4.85;4.35;;;;;;;;;;5026129;28;20209;-68
2023/08/18 03:41:43;;;;;;;4.80;4.40;;;;;;;;;;5024535;28;20207;-69
2023/08/18 03:44:12;;;;;;;4.95;4.10;;;;;;;;;;5021438;28;20200;-69
2023/08/18 03:46:39;;;;;;;4.90;4.03;;;;;;;;;;5024631;28;20295;-68
2023/08/18 03:49:06;;;;;;;5.32;4.13;;;;;;;;;;5028156;28;20225;-68
2023/08/18 03:51:33;;;;;;;4.72;4.30;;;;;;;;;;5026349;28;20208;-68
2023/08/18 03:54:00;;;;;;;5.68;4.10;;;;;;;;;;5023677;28;20204;-68
2023/08/18 03:56:28;;;;;;;5.30;4.20;;;;;;;;;;5027419;28;20201;-68
2023/08/18 03:58:55;;;;;;;4.63;4.30;;;;;;;;;;5026471;28;20195;-69
2023/08/18 04:01:23;;;;;;;5.45;4.22;;;;;;;;;;5026470;28;20235;-69
2023/08/18 04:03:50;;;;;;;4.50;4.10;;;;;;;;;;5025839;28;20207;-69
2023/08/18 04:06:18;;;;;;;4.47;4.10;;;;;;;;;;5024901;28;20211;-68
2023/08/18 04:08:45;;;;;;;5.10;4.60;;;;;;;;;;5021861;28;20220;-69
2023/08/18 04:11:13;;;;;;;4.25;3.95;;;;;;;;;;5026285;28;20207;-68
2023/08/18 04:13:40;;;;;;;5.43;4.20;;;;;;;;;;5023329;28;20205;-69
2023/08/18 04:16:07;;;;;;;5.00;4.05;;;;;;;;;;5020814;28;20201;-68
2023/08/18 04:18:35;;;;;;;4.57;4.25;;;;;;;;;;5024550;28;20223;-69
2023/08/18 04:21:03;;;;;;;5.10;4.55;;;;;;;;;;5026484;28;20201;-69
2023/08/18 04:23:31;;;;;;;4.93;4.40;;;;;;;;;;5021339;28;20497;-69
2023/08/18 04:25:58;;;;;;;4.88;4.57;;;;;;;;;;5026339;28;20218;-69
2023/08/18 04:28:25;;;;;;;5.70;4.50;;;;;;;;;;5019505;28;20212;-69
2023/08/18 04:30:52;;;;;;;4.93;4.53;;;;;;;;;;5027938;28;20212;-69
2023/08/18 04:33:20;;;;;;;6.20;4.78;;;;;;;;;;5023590;28;20227;-69
2023/08/18 04:35:48;;;;;;;5.40;5.00;;;;;;;;;;5023367;28;20236;-68
2023/08/18 04:38:16;;;;;;;5.30;4.88;;;;;;;;;;5019297;28;20300;-69
2023/08/18 04:40:43;;;;;;;5.00;4.60;;;;;;;;;;5018340;28;20232;-69
2023/08/18 04:43:10;;;;;;;5.55;4.93;;;;;;;;;;5024473;28;20220;-69
2023/08/18 04:45:39;;;;;;;5.03;4.38;;;;;;;;;;5024622;28;20209;-69
2023/08/18 04:48:07;;;;;;;6.35;4.78;;;;;;;;;;5021267;28;20223;-68
2023/08/18 04:50:34;;;;;;;5.43;4.93;;;;;;;;;;5028404;28;20208;-67
2023/08/18 04:53:03;;;;;;;4.90;4.50;;;;;;;;;;5026789;28;20205;-68
2023/08/18 04:55:30;;;;;;;5.15;4.70;;;;;;;;;;5024757;28;20210;-68
2023/08/18 04:57:57;;;;;;;5.00;4.57;;;;;;;;;;5020539;28;20358;-68
2023/08/18 05:00:24;;;;;;;4.90;4.50;;;;;;;;;;5019975;28;20255;-68
2023/08/18 05:02:52;;;;;;;5.50;4.97;;;;;;;;;;5020934;28;20200;-67
2023/08/18 05:05:19;;;;;;;5.07;4.40;;;;;;;;;;5025148;28;20203;-67
2023/08/18 05:07:47;;;;;;;5.10;4.70;;;;;;;;;;5027837;28;20204;-68
2023/08/18 05:10:15;;;;;;;4.78;4.38;;;;;;;;;;5022205;28;20219;-67
2023/08/18 05:12:42;;;;;;;5.78;5.00;;;;;;;;;;5021620;28;20205;-68
2023/08/18 05:15:11;;;;;;;4.88;4.30;;;;;;;;;;5024103;28;20417;-68
2023/08/18 05:17:38;;;;;;;5.75;4.85;;;;;;;;;;5020533;28;20209;-68
2023/08/18 05:20:05;;;;;;;5.25;4.85;;;;;;;;;;5021453;28;20205;-68
2023/08/18 05:22:32;;;;;;;5.22;4.70;;;;;;;;;;5023872;28;20204;-67
2023/08/18 05:24:59;;;;;;;5.05;4.65;;;;;;;;;;5020632;28;20207;-68
2023/08/18 05:27:28;;;;;;;6.25;4.78;;;;;;;;;;5021868;28;20205;-67
2023/08/18 05:29:57;;;;;;;5.22;4.72;;;;;;;;;;5021868;28;20219;-68
2023/08/18 05:32:24;;;;;;;5.05;4.65;;;;;;;;;;5023994;28;20196;-68
2023/08/18 05:34:54;;;;;;;4.78;4.38;;;;;;;;;;5024644;28;20214;-68
2023/08/18 05:37:22;;;;;;;5.35;4.82;;;;;;;;;;5028994;28;20292;-68
2023/08/18 05:39:49;;;;;;;5.28;4.82;;;;;;;;;;5028376;28;20204;-68
2023/08/18 05:42:16;;;;;;;5.40;4.85;;;;;;;;;;5023058;28;20204;-62
2023/08/18 05:44:45;;;;;;;4.63;4.22;;;;;;;;;;5020269;28;20215;-62
2023/08/18 05:47:12;;;;;;;4.68;4.28;;;;;;;;;;5015673;28;20205;-62
2023/08/18 05:49:39;;;;;;;4.82;4.43;;;;;;;;;;5020198;28;20216;-62
2023/08/18 05:52:06;;;;;;;6.13;4.30;;;;;;;;;;5024848;28;20200;-62
2023/08/18 05:54:33;;;;;;;4.30;4.00;;;;;;;;;;5021570;28;20211;-62
2023/08/18 05:57:00;;;;;;;4.80;4.50;;;;;;;;;;5017220;28;20212;-63
2023/08/18 05:59:28;;;;;;;5.43;4.93;;;;;;;;;;5015528;28;20228;-64
2023/08/18 06:01:56;;;;;;;5.47;5.07;;;;;;;;;;5015121;28;20210;-62
2023/08/18 06:04:24;;;;;;;5.35;4.85;;;;;;;;;;5022669;28;20215;-63
2023/08/18 06:06:51;;;;;;;5.72;5.22;;;;;;;;;;5019129;28;20218;-63
2023/08/18 06:09:19;;;;;;;5.38;4.88;;;;;;;;;;5018250;28;20234;-63
2023/08/18 06:11:46;;;;;;;6.55;5.60;;;;;;;;;;5017350;28;20215;-63
2023/08/18 06:14:13;;;;;;;7.50;5.68;;;;;;;;;;5020320;28;20262;-64
2023/08/18 06:16:41;;;;;;;5.72;5.22;;;;;;;;;;5021246;28;20224;-63
2023/08/18 06:19:09;;;;;;;5.47;4.90;;;;;;;;;;5018897;28;20213;-63
2023/08/18 06:21:37;;;;;;;5.50;5.00;;;;;;;;;;5021253;28;20244;-63
2023/08/18 06:24:06;;;;;;;5.18;4.78;;;;;;;;;;5023975;28;20223;-62
2023/08/18 06:26:33;;;;;;;7.38;5.15;;;;;;;;;;5022689;28;20201;-63
2023/08/18 06:29:01;;;;;;;5.80;5.30;;;;;;;;;;5020183;28;20220;-63
2023/08/18 06:31:28;;;;;;;6.85;5.70;;;;;;;;;;5018451;28;20200;-63
2023/08/18 06:33:58;;;;;;;5.35;4.82;;;;;;;;;;5018056;28;20212;-63
2023/08/18 06:36:27;;;;;;;4.90;4.50;;;;;;;;;;5023586;28;20212;-64
2023/08/18 06:38:54;;;;;;;4.80;4.50;;;;;;;;;;5022353;28;20211;-62
2023/08/18 06:41:22;;;;;;;5.05;4.65;;;;;;;;;;5022173;28;20212;-62
2023/08/18 06:43:50;;;;;;;7.57;4.50;;;;;;;;;;5021381;28;20209;-61
2023/08/18 06:46:17;;;;;;;4.82;4.43;;;;;;;;;;5022490;28;20212;-61
2023/08/18 06:48:45;;;;;;;4.03;3.67;;;;;;;;;;5017572;28;20228;-61
2023/08/18 06:51:12;;;;;;;4.18;3.88;;;;;;;;;;5022283;28;20219;-61
2023/08/18 06:53:41;;;;;;;4.30;3.63;;;;;;;;;;5023404;28;20215;-65
2023/08/18 06:56:09;;;;;;;3.65;3.35;;;;;;;;;;5024749;28;20213;-65
2023/08/18 06:58:36;;;;;;;3.80;3.50;;;;;;;;;;5022736;28;20207;-66
2023/08/18 07:01:04;;;;;;;3.90;3.60;;;;;;;;;;5025909;28;20247;-65
2023/08/18 07:03:32;;;;;;;4.10;3.58;;;;;;;;;;5023093;28;20209;-65
2023/08/18 07:06:01;;;;;;;4.03;3.63;;;;;;;;;;5020188;28;20204;-65
2023/08/18 07:08:29;;;;;;;4.63;4.10;;;;;;;;;;5030448;28;20306;-65
2023/08/18 07:10:58;;;;;;;4.57;4.18;;;;;;;;;;5023755;28;20272;-66
2023/08/18 07:13:25;;;;;;;11.35;6.10;;;;;;;;;;5021347;28;20247;-67
2023/08/18 07:15:53;;;;;;;5.80;5.30;;;;;;;;;;5023310;28;20295;-69
2023/08/18 07:18:20;;;;;;;7.03;6.43;;;;;;;;;;5022339;28;20247;-67
2023/08/18 07:20:52;;;;;;;6.53;6.13;;;;;;;;;;5023807;28;20279;-67
2023/08/18 07:23:20;;;;;;;8.13;7.40;;;;;;;;;;5022708;28;20204;-65
2023/08/18 07:25:47;;;;;;;7.32;6.63;;;;;;;;;;5030518;28;20212;-66
2023/08/18 07:28:20;;;;;;;8.23;7.60;;;;;;;;;;5024421;28;20237;-66
2023/08/18 07:30:47;;;;;;;9.88;9.07;;;;;;;;;;5023901;28;20216;-67
2023/08/18 07:33:15;;;;;;;7.50;6.80;;;;;;;;;;5018363;28;20205;-67
2023/08/18 07:35:42;;;;;;;8.73;8.02;;;;;;;;;;5024914;28;20261;-66
2023/08/18 07:38:10;;;;;;;8.00;7.40;;;;;;;;;;5026331;28;20218;-66
2023/08/18 07:40:37;;;;;;;8.05;7.40;;;;;;;;;;5018217;28;20204;-66
2023/08/18 07:43:08;;;;;;;8.50;7.82;;;;;;;;;;5023277;28;20283;-65
2023/08/18 07:45:37;;;;;;;7.72;7.22;;;;;;;;;;5021404;28;20254;-65
2023/08/18 07:48:04;;;;;;;7.53;6.82;;;;;;;;;;5024306;28;20210;-65
2023/08/18 07:50:34;;;;;;;8.32;7.53;;;;;;;;;;5016173;28;20333;-65
2023/08/18 07:53:02;;;;;;;8.23;7.53;;;;;;;;;;5021223;28;20285;-65
2023/08/18 07:55:29;;;;;;;8.15;7.55;;;;;;;;;;5021803;28;20204;-65
2023/08/18 07:57:56;;;;;;;7.43;6.93;;;;;;;;;;5019063;28;20206;-65
2023/08/18 08:00:23;;;;;;;8.25;7.55;;;;;;;;;;5017656;28;20239;-65
2023/08/18 08:02:52;;;;;;;7.78;7.10;;;;;;;;;;5022405;28;20204;-62
2023/08/18 08:05:20;;;;;;;8.73;8.00;;;;;;;;;;5023030;28;20201;-61
2023/08/18 08:07:47;;;;;;;8.88;8.18;;;;;;;;;;5024757;28;20287;-61
2023/08/18 08:10:14;;;;;;;6.72;6.13;;;;;;;;;;5024089;28;20314;-63
2023/08/18 08:12:42;;;;;;;7.05;6.45;;;;;;;;;;5018919;28;20212;-63
2023/08/18 08:15:10;;;;;;;7.72;7.03;;;;;;;;;;5023294;28;20300;-61
2023/08/18 08:17:38;;;;;;;6.13;5.63;;;;;;;;;;5017466;28;20208;-61
2023/08/18 08:20:10;;;;;;;6.85;6.25;;;;;;;;;;5023251;28;20203;-61
2023/08/18 08:22:38;;;;;;;5.90;5.47;;;;;;;;;;5021966;28;20231;-61
2023/08/18 08:25:06;;;;;;;6.68;6.07;;;;;;;;;;5023767;28;20215;-60
2023/08/18 08:27:33;;;;;;;6.70;6.20;;;;;;;;;;5025039;28;20208;-61
2023/08/18 08:30:00;;;;;;;6.43;5.97;;;;;;;;;;5020888;28;20220;-61
2023/08/18 08:32:27;;;;;;;5.45;5.05;;;;;;;;;;5018937;28;20208;-61
2023/08/18 08:34:54;;;;;;;5.57;5.07;;;;;;;;;;5019743;28;20212;-61
2023/08/18 08:37:23;;;;;;;6.07;4.95;;;;;;;;;;5022390;28;20208;-61
2023/08/18 08:39:50;;;;;;;5.40;5.00;;;;;;;;;;5021236;28;20204;-61
2023/08/18 08:42:17;;;;;;;6.10;5.50;;;;;;;;;;5024410;28;20202;-61
2023/08/18 08:44:44;;;;;;;6.22;5.18;;;;;;;;;;5019844;28;20201;-62
2023/08/18 08:47:11;;;;;;;6.07;5.68;;;;;;;;;;5023184;28;20204;-61
2023/08/18 08:49:41;;;;;;;5.75;5.35;;;;;;;;;;5023169;28;20234;-61
2023/08/18 08:52:09;;;;;;;5.80;5.15;;;;;;;;;;5023421;28;20210;-61
2023/08/18 08:54:39;;;;;;;5.38;4.85;;;;;;;;;;5020590;28;20208;-62
2023/08/18 08:57:06;;;;;;;5.38;4.97;;;;;;;;;;5027524;28;20204;-61
2023/08/18 08:59:33;;;;;;;5.68;5.18;;;;;;;;;;5020268;28;20242;-61
2023/08/18 09:02:00;;;;;;;6.25;5.65;;;;;;;;;;5019879;28;20208;-62
2023/08/18 09:04:28;;;;;;;5.90;5.50;;;;;;;;;;5022222;28;20205;-62
2023/08/18 09:06:56;;;;;;;5.25;4.78;;;;;;;;;;5020558;28;20201;-63
2023/08/18 09:09:23;;;;;;;5.95;5.35;;;;;;;;;;5011948;28;20217;-62
2023/08/18 09:11:52;;;;;;;5.30;4.90;;;;;;;;;;5017564;28;20204;-66
2023/08/18 09:14:19;;;;;;;5.75;5.25;;;;;;;;;;5023305;28;20223;-66
2023/08/18 09:16:46;;;;;;;5.60;5.20;;;;;;;;;;5020249;28;20205;-66
2023/08/18 09:19:14;;;;;;;5.07;4.78;;;;;;;;;;5017612;28;20209;-66
2023/08/18 09:21:41;;;;;;;4.82;4.43;;;;;;;;;;5019363;28;20497;-66
2023/08/18 09:24:08;;;;;;;5.47;4.97;;;;;;;;;;5019682;28;20237;-66
2023/08/18 09:26:36;;;;;;;4.93;4.63;;;;;;;;;;5020272;28;20542;-66
2023/08/18 09:29:04;;;;;;;5.38;4.97;;;;;;;;;;5022869;28;20216;-66
2023/08/18 09:31:32;;;;;;;5.90;5.40;;;;;;;;;;5025816;28;20345;-66
2023/08/18 09:33:59;;;;;;;5.25;4.85;;;;;;;;;;5019912;28;20223;-66
2023/08/18 09:36:27;;;;;;;5.35;4.95;;;;;;;;;;5019921;28;20204;-66
2023/08/18 09:38:54;;;;;;;5.50;5.10;;;;;;;;;;5018665;28;20204;-66
2023/08/18 09:41:21;;;;;;;5.65;5.15;;;;;;;;;;5022931;28;20223;-66
2023/08/18 09:43:49;;;;;;;5.50;4.93;;;;;;;;;;5022171;28;20223;-66
2023/08/18 09:46:18;;;;;;;5.68;4.88;;;;;;;;;;5016728;28;20208;-66
2023/08/18 09:48:47;;;;;;;4.43;4.03;;;;;;;;;;5027308;28;20214;-67
2023/08/18 09:51:14;;;;;;;5.88;4.80;;;;;;;;;;5017711;28;20265;-66
2023/08/18 09:53:43;;;;;;;5.80;5.20;;;;;;;;;;5020702;28;20205;-67
2023/08/18 09:56:12;;;;;;;5.20;4.80;;;;;;;;;;5018903;28;20213;-67
2023/08/18 09:58:43;;;;;;;5.50;5.03;;;;;;;;;;5019329;28;20215;-66
2023/08/18 10:01:10;;;;;;;5.53;5.03;;;;;;;;;;5021711;28;20299;-66
2023/08/18 10:03:39;;;;;;;6.65;5.20;;;;;;;;;;5019672;28;20200;-65
2023/08/18 10:06:07;;;;;;;5.40;4.88;;;;;;;;;;5019211;28;20238;-66
2023/08/18 10:08:35;;;;;;;5.03;4.63;;;;;;;;;;5013019;28;20216;-66
2023/08/18 10:11:02;;;;;;;5.40;4.97;;;;;;;;;;5021884;28;20232;-65
2023/08/18 10:13:31;;;;;;;6.45;5.20;;;;;;;;;;5023620;28;20291;-66
2023/08/18 10:15:58;;;;;;;5.40;4.90;;;;;;;;;;5021327;28;20201;-66
2023/08/18 10:18:25;;;;;;;5.55;5.05;;;;;;;;;;5024505;28;20208;-64
2023/08/18 10:20:54;;;;;;;5.15;4.50;;;;;;;;;;5021353;28;20203;-65
2023/08/18 10:23:24;;;;;;;6.30;4.93;;;;;;;;;;5026172;28;20196;-62
2023/08/18 10:25:52;;;;;;;5.43;4.78;;;;;;;;;;5025006;28;20204;-61
2023/08/18 10:28:19;;;;;;;4.90;4.50;;;;;;;;;;5015010;28;20217;-61
2023/08/18 10:30:51;;;;;;;4.90;4.50;;;;;;;;;;5019067;28;20212;-61
2023/08/18 10:33:29;;;;;;;5.10;4.60;;;;;;;;;;5022364;28;20216;-61
2023/08/18 10:35:59;;;;;;;4.32;3.88;;;;;;;;;;5024209;28;20240;-61
2023/08/18 10:38:29;;;;;;;7.40;4.70;;;;;;;;;;5027907;28;20204;-61
2023/08/18 10:40:57;;;;;;;5.43;4.88;;;;;;;;;;5029431;28;20192;-62
2023/08/18 10:43:27;;;;;;;4.97;4.57;;;;;;;;;;5015646;28;20223;-60
2023/08/18 10:45:57;;;;;;;5.20;4.70;;;;;;;;;;5018667;28;20227;-61
2023/08/18 10:48:29;;;;;;;4.70;4.30;;;;;;;;;;5015338;28;20209;-61
2023/08/18 10:50:56;;;;;;;4.90;4.50;;;;;;;;;;5024232;28;20275;-61
2023/08/18 10:53:25;;;;;;;4.45;4.00;;;;;;;;;;5014790;28;20215;-60
2023/08/18 10:55:53;;;;;;;4.68;4.25;;;;;;;;;;5021155;28;20217;-62
2023/08/18 10:58:20;;;;;;;4.85;4.35;;;;;;;;;;5023026;28;20208;-61
2023/08/18 11:00:48;;;;;;;4.95;4.55;;;;;;;;;;5026738;28;20236;-61
2023/08/18 11:03:15;;;;;;;5.28;4.47;;;;;;;;;;5029278;28;20303;-61
2023/08/18 11:05:42;;;;;;;4.97;4.30;;;;;;;;;;5027386;28;20208;-61
2023/08/18 11:08:10;;;;;;;4.43;4.10;;;;;;;;;;5034052;28;20208;-61
2023/08/18 11:10:39;;;;;;;4.47;3.88;;;;;;;;;;5026525;28;20226;-61
2023/08/18 11:13:06;;;;;;;4.30;4.00;;;;;;;;;;5028750;28;20212;-60
2023/08/18 11:15:33;;;;;;;4.43;4.03;;;;;;;;;;5025667;28;20212;-61
2023/08/18 11:18:01;;;;;;;4.82;4.43;;;;;;;;;;5027583;28;20203;-61
2023/08/18 11:20:28;;;;;;;7.22;3.80;;;;;;;;;;5023961;28;20204;-61
2023/08/18 11:22:56;;;;;;;3.40;3.10;;;;;;;;;;5021578;28;20208;-61
2023/08/18 11:25:25;;;;;;;4.40;3.38;;;;;;;;;;5015323;28;20212;-62
2023/08/18 11:27:53;;;;;;;5.32;3.35;;;;;;;;;;5016550;28;20292;-61
2023/08/18 11:30:21;;;;;;;5.43;3.50;;;;;;;;;;5026178;28;20223;-62
2023/08/18 11:32:48;;;;;;;6.20;3.75;;;;;;;;;;5024376;28;20219;-61
2023/08/18 11:35:18;;;;;;;5.93;3.95;;;;;;;;;;5028638;28;20204;-61
2023/08/18 11:37:46;;;;;;;6.43;4.32;;;;;;;;;;5024846;28;20227;-62
2023/08/18 11:40:14;;;;;;;4.43;3.95;;;;;;;;;;5029065;28;20215;-62
2023/08/18 11:42:42;;;;;;;4.57;3.90;;;;;;;;;;5021037;28;20209;-61
2023/08/18 11:45:15;;;;;;;5.80;3.95;;;;;;;;;;5019104;28;20213;-61
2023/08/18 11:47:42;;;;;;;4.15;3.67;;;;;;;;;;5027989;28;20307;-61
2023/08/18 11:50:12;;;;;;;4.65;3.47;;;;;;;;;;5016520;28;20207;-61
2023/08/18 11:52:42;;;;;;;3.60;3.30;;;;;;;;;;5013639;28;20219;-61
2023/08/18 11:55:10;;;;;;;3.83;3.53;;;;;;;;;;5014787;28;20300;-62
2023/08/18 11:57:40;;;;;;;5.50;3.42;;;;;;;;;;5019284;28;20201;-61
2023/08/18 12:00:14;;;;;;;3.80;3.45;;;;;;;;;;5018393;28;20251;-62
2023/08/18 12:02:42;;;;;;;3.95;3.63;;;;;;;;;;5022971;28;20215;-62
2023/08/18 12:05:19;;;;;;;3.90;3.60;;;;;;;;;;5022209;28;20220;-62
2023/08/18 12:07:46;;;;;;;3.75;3.38;;;;;;;;;;5023830;28;20207;-61
2023/08/18 12:10:13;;;;;;;5.00;3.70;;;;;;;;;;5025140;28;20206;-61
2023/08/18 12:12:40;;;;;;;3.72;3.28;;;;;;;;;;5023955;28;20204;-61
2023/08/18 12:15:08;;;;;;;5.97;3.45;;;;;;;;;;5024449;28;20200;-62
2023/08/18 12:17:36;;;;;;;4.10;3.70;;;;;;;;;;5020633;28;20205;-61
2023/08/18 12:20:07;;;;;;;3.83;3.45;;;;;;;;;;5021956;28;20201;-61
2023/08/18 12:22:34;;;;;;;3.72;3.20;;;;;;;;;;5025098;28;20254;-61
2023/08/18 12:25:02;;;;;;;4.05;3.60;;;;;;;;;;5021546;28;20205;-60
2023/08/18 12:27:29;;;;;;;2.95;2.75;;;;;;;;;;5023716;28;20200;-62
2023/08/18 12:29:56;;;;;;;3.30;3.00;;;;;;;;;;5021294;28;20209;-61
2023/08/18 12:32:24;;;;;;;6.38;3.50;;;;;;;;;;5023261;28;20232;-61
2023/08/18 12:34:52;;;;;;;3.25;2.95;;;;;;;;;;5021862;28;20201;-61
2023/08/18 12:37:20;;;;;;;3.70;3.28;;;;;;;;;;5025191;28;20212;-62
2023/08/18 12:39:48;;;;;;;3.53;2.90;;;;;;;;;;5023007;28;20244;-62
2023/08/18 12:42:16;;;;;;;3.90;3.22;;;;;;;;;;5021911;28;20235;-65
2023/08/18 12:44:43;;;;;;;4.38;2.90;;;;;;;;;;5026300;28;20255;-65
2023/08/18 12:47:11;;;;;;;3.03;2.72;;;;;;;;;;5024794;28;20201;-65
2023/08/18 12:49:38;;;;;;;5.30;2.83;;;;;;;;;;5022124;28;20215;-65
2023/08/18 12:52:06;;;;;;;3.20;2.90;;;;;;;;;;5022174;28;20219;-61
2023/08/18 12:54:34;;;;;;;4.45;2.90;;;;;;;;;;5026974;28;20208;-60
2023/08/18 12:57:01;;;;;;;3.15;2.85;;;;;;;;;;5017741;28;20216;-62
2023/08/18 12:59:28;;;;;;;3.30;3.00;;;;;;;;;;5025650;28;20251;-60
2023/08/18 13:01:55;;;;;;;3.47;2.90;;;;;;;;;;5016351;28;20247;-62
2023/08/18 13:04:22;;;;;;;4.43;3.10;;;;;;;;;;5018443;28;20200;-61
2023/08/18 13:06:49;;;;;;;4.78;3.08;;;;;;;;;;5019373;28;20214;-61
2023/08/18 13:09:19;;;;;;;3.40;3.10;;;;;;;;;;5020917;28;20212;-61
2023/08/18 13:11:46;;;;;;;3.28;2.97;;;;;;;;;;5022507;28;20287;-60
2023/08/18 13:14:13;;;;;;;5.13;3.42;;;;;;;;;;5022738;28;20217;-60
2023/08/18 13:16:41;;;;;;;3.40;3.00;;;;;;;;;;5018934;28;20216;-61
2023/08/18 13:19:08;;;;;;;3.17;2.92;;;;;;;;;;5020474;28;20258;-61
2023/08/18 13:21:35;;;;;;;3.72;3.17;;;;;;;;;;5020673;28;20209;-61
2023/08/18 13:24:02;;;;;;;3.75;3.45;;;;;;;;;;5023437;28;20200;-61
2023/08/18 13:26:31;;;;;;;3.08;2.58;;;;;;;;;;5024375;28;20204;-61
2023/08/18 13:28:58;;;;;;;3.20;3.00;;;;;;;;;;5023399;28;20294;-61
2023/08/18 13:31:25;;;;;;;3.40;2.97;;;;;;;;;;5023092;28;20212;-62
2023/08/18 13:33:52;;;;;;;3.55;3.22;;;;;;;;;;5023399;28;20209;-61
2023/08/18 13:36:20;;;;;;;3.40;2.92;;;;;;;;;;5017648;28;20215;-61
2023/08/18 13:38:47;;;;;;;3.10;2.90;;;;;;;;;;5021974;28;20215;-61
2023/08/18 13:41:14;;;;;;;4.28;2.90;;;;;;;;;;5018940;28;20224;-63
2023/08/18 13:43:43;;;;;;;3.20;3.00;;;;;;;;;;5023222;28;20203;-60
2023/08/18 13:46:10;;;;;;;3.78;3.10;;;;;;;;;;5019946;28;20220;-61
2023/08/18 13:48:37;;;;;;;4.15;2.95;;;;;;;;;;5019942;28;20209;-61
2023/08/18 13:51:04;;;;;;;3.33;2.80;;;;;;;;;;5021779;28;20231;-61
2023/08/18 13:53:33;;;;;;;4.70;3.00;;;;;;;;;;5020349;28;20208;-61
2023/08/18 13:56:00;;;;;;;3.95;2.95;;;;;;;;;;5016352;28;20291;-61
2023/08/18 13:58:27;;;;;;;3.17;2.78;;;;;;;;;;5018098;28;20211;-61
2023/08/18 14:00:56;;;;;;;3.45;3.15;;;;;;;;;;5021745;28;20635;-61
2023/08/18 14:03:23;;;;;;;6.43;2.83;;;;;;;;;;5019149;28;20208;-60
2023/08/18 14:05:50;;;;;;;3.53;2.80;;;;;;;;;;5021280;28;20205;-61
2023/08/18 14:08:17;;;;;;;5.43;3.00;;;;;;;;;;5022336;28;20209;-61
2023/08/18 14:10:44;;;;;;;4.00;2.90;;;;;;;;;;5021668;28;20205;-61
2023/08/18 14:13:12;;;;;;;6.07;2.92;;;;;;;;;;5018567;28;20219;-61
2023/08/18 14:15:40;;;;;;;5.07;2.97;;;;;;;;;;5022851;28;20219;-61
2023/08/18 14:18:10;;;;;;;3.95;2.90;;;;;;;;;;5024179;28;20201;-62
2023/08/18 14:20:38;;;;;;;4.10;2.72;;;;;;;;;;5027103;28;20207;-61
2023/08/18 14:23:05;;;;;;;2.92;2.70;;;;;;;;;;5011963;28;20204;-61
2023/08/18 14:25:32;;;;;;;6.50;2.78;;;;;;;;;;5015473;28;20287;-61
2023/08/18 14:27:59;;;;;;;5.10;2.80;;;;;;;;;;5020921;28;20195;-61
2023/08/18 14:30:26;;;;;;;2.95;2.60;;;;;;;;;;5016052;28;20211;-62
2023/08/18 14:32:54;;;;;;;5.82;2.83;;;;;;;;;;5014563;28;20220;-61
2023/08/18 14:35:22;;;;;;;3.00;2.70;;;;;;;;;;5022480;28;20208;-61
2023/08/18 14:37:50;;;;;;;3.20;2.90;;;;;;;;;;5015329;28;20206;-61
2023/08/18 14:40:17;;;;;;;3.25;2.55;;;;;;;;;;5019476;28;20204;-62
2023/08/18 14:42:44;;;;;;;5.15;2.90;;;;;;;;;;5025102;28;20207;-61
2023/08/18 14:45:12;;;;;;;4.18;2.63;;;;;;;;;;5026068;28;20262;-61
2023/08/18 14:47:39;;;;;;;3.25;2.80;;;;;;;;;;5022277;28;20204;-62